Massachusetts Logo

Lynnfield, MA Single Family Real Estate Listings

26 Total Real Estate Listings * Click on table heading to sort
Date Posted Property Type Style Address Price Living Area Lot Size Price/Sq Ft.
2020-10-26 Single Family Colonial 4 Willowby Way Lynnfield, MA 01940 $799,900 2,891 sq. ft. 15,682 sq. ft. $277
2020-10-18 Single Family Split Entry 5 Candlewood Road Lynnfield, MA 01940 $929,800 3,198 sq. ft. 30,492 sq. ft. $291
2020-10-15 Single Family Colonial 79 Oak Ridge Ter Lynnfield, MA 01940 $1,050,000 3,084 sq. ft. 37,462 sq. ft. $340
2020-10-15 Single Family Split Entry 37 Doncaster Cir Lynnfield, MA 01940 $639,000 1,883 sq. ft. 15,682 sq. ft. $339
2020-10-14 Single Family Colonial 195 Lowell St Lynnfield, MA 01940 $829,000 2,490 sq. ft. 40,946 sq. ft. $333
2020-10-14 Single Family Ranch 34 Homestead Rd Lynnfield, MA 01940 $629,900 1,560 sq. ft. 16,553 sq. ft. $404
2020-10-14 Single Family Contemporary 12 Alexandra Road Lynnfield, MA 01940 $1,550,000 4,204 sq. ft. 31,799 sq. ft. $369
2020-10-14 Single Family Colonial 3 Norris Rd Lynnfield, MA 01940 $979,000 3,335 sq. ft. 30,492 sq. ft. $294
2020-10-09 Single Family Cape 6 Laurel Road Lynnfield, MA 01940 $519,900 1,525 sq. ft. 6,534 sq. ft. $341
2020-10-09 Single Family Cape 50 Lynnbrook Road Lynnfield, MA 01940 $579,900 1,677 sq. ft. 12,197 sq. ft. $346
2020-10-07 Single Family Contemporary 244 Moulton Drive Lynnfield, MA 01940 $749,900 2,990 sq. ft. 21,780 sq. ft. $251
2020-10-02 Single Family Colonial 50 Fairview Avenue Lynnfield, MA 01940 $869,900 3,136 sq. ft. 17,424 sq. ft. $277
2020-10-01 Single Family Ranch 12 Melch Road Lynnfield, MA 01940 $599,900 2,550 sq. ft. 14,810 sq. ft. $235
2020-10-01 Single Family Colonial 176 Walnut St Lynnfield, MA 01940 $975,000 2,954 sq. ft. 26,572 sq. ft. $330
2020-09-30 Single Family Split Entry 2 Squire Lane Lynnfield, MA 01940 $779,000 2,544 sq. ft. 36,590 sq. ft. $306
2020-09-30 Single Family Colonial 28 Alexandra Rd Lynnfield, MA 01940 $949,850 3,668 sq. ft. 48,787 sq. ft. $259
2020-09-30 Single Family Split Entry 7 Ivanhoe Dr Lynnfield, MA 01940 $899,000 2,350 sq. ft. 20,038 sq. ft. $383
2020-09-24 Single Family Colonial 26 Apple Hill Lane Lynnfield, MA 01940 $1,649,890 4,491 sq. ft. 40,511 sq. ft. $367
2020-09-24 Single Family Colonial 722 Salem Street Lynnfield, MA 01940 $1,200,000 2,628 sq. ft. 31,799 sq. ft. $457
2020-09-16 Single Family Contemporary 31 Wildewood Drive Lynnfield, MA 01940 $1,195,000 3,844 sq. ft. 35,719 sq. ft. $311
2020-09-13 Single Family Cape 606 Summer Street Lynnfield, MA 01940 $599,999 1,828 sq. ft. 15,682 sq. ft. $328
2020-09-07 Single Family 390 Salem St Lynnfield, MA 01940 $2,195,000 7,350 sq. ft. 259,182 sq. ft. $299
2020-08-30 Single Family Colonial 1 Ashley Ct Lynnfield, MA 01940 $1,649,000 7,383 sq. ft. 43,560 sq. ft. $223
2020-08-12 Single Family Colonial 22 Sylvan Circle Lynnfield, MA 01940 $697,000 2,040 sq. ft. 24,829 sq. ft. $342
2020-08-12 Single Family Raised Ranch 495 Chestnut St Lynnfield, MA 01940 $685,000 2,136 sq. ft. 60,548 sq. ft. $321
2020-08-10 Single Family Colonial 60 Chestnut St Lynnfield, MA 01940 $1,400,000 2,235 sq. ft. 91,912 sq. ft. $626